Dobbin, Texas
Current Conditions -  °F | °C
As of 9:53 AM on Wednesday 26 Nov 2014 (Local Time) from KCXO Reporting Station
Clear Clear  
Wind Chill: 58°   Ceiling: Unl
Heat Index: 58°   Visibility: 10mi
Dew Point: 34°   Wind: 13mph
Humidity: 41%   Direction: 240°WSW
Pressure: 30.24"   Gusts: 22mph
Location:  30.37°N, 95.78°W
Report Text: KCXO 261553Z 24011G19KT 10SM CLR 14/01 A3024 RMK AO2 SLP238 T01440011
Loading
Personal Weather Stations






























Interactive Weather Map New forecast layout! Learn more

10-Day Weather Forecast

Advertisements
Track Severe Weather on mobile